sensor_id;sensor_type;location;lat;lon;timestamp;pressure;altitude;pressure_sealevel;temperature;humidity
5872;BME280;2962;51.312;7.378;2023-11-21T00:00:55;96861.56;;;5.43;100.00
5872;BME280;2962;51.312;7.378;2023-11-21T00:03:20;96874.63;;;5.56;100.00
5872;BME280;2962;51.312;7.378;2023-11-21T00:05:48;96865.31;;;5.70;100.00
5872;BME280;2962;51.312;7.378;2023-11-21T00:08:14;96860.59;;;5.67;100.00
5872;BME280;2962;51.312;7.378;2023-11-21T00:10:39;96868.16;;;5.61;100.00
5872;BME280;2962;51.312;7.378;2023-11-21T00:13:04;96872.34;;;5.74;100.00
5872;BME280;2962;51.312;7.378;2023-11-21T00:15:29;96882.00;;;5.91;100.00
5872;BME280;2962;51.312;7.378;2023-11-21T00:17:55;96872.25;;;5.86;100.00
5872;BME280;2962;51.312;7.378;2023-11-21T00:20:20;96888.38;;;5.99;100.00
5872;BME280;2962;51.312;7.378;2023-11-21T00:22:46;96887.84;;;6.09;100.00
5872;BME280;2962;51.312;7.378;2023-11-21T00:25:12;96894.31;;;6.04;100.00
5872;BME280;2962;51.312;7.378;2023-11-21T00:27:38;96883.16;;;6.06;100.00
5872;BME280;2962;51.312;7.378;2023-11-21T00:30:03;96887.25;;;6.16;100.00
5872;BME280;2962;51.312;7.378;2023-11-21T00:32:30;96889.16;;;6.15;100.00
5872;BME280;2962;51.312;7.378;2023-11-21T00:34:56;96882.53;;;6.13;100.00
5872;BME280;2962;51.312;7.378;2023-11-21T00:37:21;96887.78;;;6.05;100.00
5872;BME280;2962;51.312;7.378;2023-11-21T00:39:46;96883.31;;;6.13;100.00
5872;BME280;2962;51.312;7.378;2023-11-21T00:42:12;96862.84;;;5.96;100.00
5872;BME280;2962;51.312;7.378;2023-11-21T00:44:38;96891.34;;;6.09;100.00
5872;BME280;2962;51.312;7.378;2023-11-21T00:47:04;96881.66;;;6.08;100.00
5872;BME280;2962;51.312;7.378;2023-11-21T00:49:29;96888.22;;;6.07;100.00
5872;BME280;2962;51.312;7.378;2023-11-21T00:51:55;96885.34;;;6.00;100.00
5872;BME280;2962;51.312;7.378;2023-11-21T00:54:23;96893.19;;;6.05;100.00
5872;BME280;2962;51.312;7.378;2023-11-21T00:56:48;96874.94;;;5.86;100.00
5872;BME280;2962;51.312;7.378;2023-11-21T00:59:13;96885.97;;;5.94;100.00
5872;BME280;2962;51.312;7.378;2023-11-21T01:01:39;96897.53;;;6.10;100.00
5872;BME280;2962;51.312;7.378;2023-11-21T01:04:04;96905.09;;;6.20;100.00
5872;BME280;2962;51.312;7.378;2023-11-21T01:06:31;96894.63;;;6.19;100.00
5872;BME280;2962;51.312;7.378;2023-11-21T01:08:57;96901.97;;;6.18;100.00
5872;BME280;2962;51.312;7.378;2023-11-21T01:11:22;96904.66;;;6.18;100.00
5872;BME280;2962;51.312;7.378;2023-11-21T01:13:47;96902.31;;;6.17;100.00
5872;BME280;2962;51.312;7.378;2023-11-21T01:16:13;96897.63;;;6.14;100.00
5872;BME280;2962;51.312;7.378;2023-11-21T01:18:38;96897.69;;;6.17;100.00
5872;BME280;2962;51.312;7.378;2023-11-21T01:21:03;96900.75;;;6.16;100.00
5872;BME280;2962;51.312;7.378;2023-11-21T01:23:29;96904.31;;;6.20;100.00
5872;BME280;2962;51.312;7.378;2023-11-21T01:25:56;96904.16;;;6.13;100.00
5872;BME280;2962;51.312;7.378;2023-11-21T01:28:21;96905.38;;;6.15;100.00
5872;BME280;2962;51.312;7.378;2023-11-21T01:30:47;96906.88;;;6.13;100.00
5872;BME280;2962;51.312;7.378;2023-11-21T01:33:13;96897.03;;;6.04;100.00
5872;BME280;2962;51.312;7.378;2023-11-21T01:35:41;96905.47;;;6.03;100.00
5872;BME280;2962;51.312;7.378;2023-11-21T01:38:07;96905.75;;;5.98;100.00
5872;BME280;2962;51.312;7.378;2023-11-21T01:40:33;96912.09;;;6.05;100.00
5872;BME280;2962;51.312;7.378;2023-11-21T01:42:59;96910.19;;;6.06;100.00
5872;BME280;2962;51.312;7.378;2023-11-21T01:45:24;96916.03;;;6.08;100.00
5872;BME280;2962;51.312;7.378;2023-11-21T01:47:50;96912.59;;;6.11;100.00
5872;BME280;2962;51.312;7.378;2023-11-21T01:50:16;96908.00;;;6.11;100.00
5872;BME280;2962;51.312;7.378;2023-11-21T01:52:44;96912.59;;;6.11;100.00
5872;BME280;2962;51.312;7.378;2023-11-21T01:55:10;96917.97;;;6.07;100.00
5872;BME280;2962;51.312;7.378;2023-11-21T01:57:36;96915.75;;;6.13;100.00
5872;BME280;2962;51.312;7.378;2023-11-21T02:00:05;96925.88;;;6.16;100.00
5872;BME280;2962;51.312;7.378;2023-11-21T02:02:47;96922.47;;;6.19;100.00
5872;BME280;2962;51.312;7.378;2023-11-21T02:05:15;96913.56;;;6.19;100.00
5872;BME280;2962;51.312;7.378;2023-11-21T02:07:42;96921.25;;;6.17;100.00
5872;BME280;2962;51.312;7.378;2023-11-21T02:10:12;96904.94;;;6.13;100.00
5872;BME280;2962;51.312;7.378;2023-11-21T02:12:41;96920.56;;;6.20;100.00
5872;BME280;2962;51.312;7.378;2023-11-21T02:15:08;96925.41;;;6.30;100.00
5872;BME280;2962;51.312;7.378;2023-11-21T02:17:41;96927.63;;;6.24;100.00
5872;BME280;2962;51.312;7.378;2023-11-21T02:20:07;96919.78;;;6.19;100.00
5872;BME280;2962;51.312;7.378;2023-11-21T02:22:37;96934.25;;;6.27;100.00
5872;BME280;2962;51.312;7.378;2023-11-21T02:25:05;96949.06;;;6.33;100.00
5872;BME280;2962;51.312;7.378;2023-11-21T02:27:32;96936.00;;;6.19;100.00
5872;BME280;2962;51.312;7.378;2023-11-21T02:29:58;96949.94;;;6.21;100.00
5872;BME280;2962;51.312;7.378;2023-11-21T02:32:23;96946.53;;;6.24;100.00
5872;BME280;2962;51.312;7.378;2023-11-21T02:34:51;96953.09;;;6.23;100.00
5872;BME280;2962;51.312;7.378;2023-11-21T02:37:16;96966.97;;;6.22;100.00
5872;BME280;2962;51.312;7.378;2023-11-21T02:39:41;96946.81;;;6.19;100.00
5872;BME280;2962;51.312;7.378;2023-11-21T02:42:07;96957.66;;;6.19;100.00
5872;BME280;2962;51.312;7.378;2023-11-21T02:44:32;96961.13;;;6.20;100.00
5872;BME280;2962;51.312;7.378;2023-11-21T02:46:58;96957.56;;;6.16;100.00
5872;BME280;2962;51.312;7.378;2023-11-21T02:49:23;96948.66;;;6.15;100.00
5872;BME280;2962;51.312;7.378;2023-11-21T02:51:48;96950.72;;;6.22;100.00
5872;BME280;2962;51.312;7.378;2023-11-21T02:54:14;96944.81;;;6.16;100.00
5872;BME280;2962;51.312;7.378;2023-11-21T02:56:39;96951.72;;;6.14;100.00
5872;BME280;2962;51.312;7.378;2023-11-21T02:59:05;96946.56;;;6.08;100.00
5872;BME280;2962;51.312;7.378;2023-11-21T03:01:30;96953.47;;;6.06;100.00
5872;BME280;2962;51.312;7.378;2023-11-21T03:03:56;96958.06;;;6.21;100.00
5872;BME280;2962;51.312;7.378;2023-11-21T03:06:22;96962.72;;;6.05;100.00
5872;BME280;2962;51.312;7.378;2023-11-21T03:08:47;96970.63;;;6.14;100.00
5872;BME280;2962;51.312;7.378;2023-11-21T03:11:13;96967.66;;;6.19;100.00
5872;BME280;2962;51.312;7.378;2023-11-21T03:13:40;96973.00;;;6.15;100.00
5872;BME280;2962;51.312;7.378;2023-11-21T03:16:09;96978.41;;;6.15;100.00
5872;BME280;2962;51.312;7.378;2023-11-21T03:18:35;96980.50;;;6.06;100.00
5872;BME280;2962;51.312;7.378;2023-11-21T03:21:01;96972.06;;;6.07;100.00
5872;BME280;2962;51.312;7.378;2023-11-21T03:23:26;96979.03;;;6.08;100.00
5872;BME280;2962;51.312;7.378;2023-11-21T03:25:52;96976.31;;;6.08;100.00
5872;BME280;2962;51.312;7.378;2023-11-21T03:28:17;96983.28;;;5.94;100.00
5872;BME280;2962;51.312;7.378;2023-11-21T03:30:43;96978.84;;;6.01;100.00
5872;BME280;2962;51.312;7.378;2023-11-21T03:33:08;96989.06;;;6.08;100.00
5872;BME280;2962;51.312;7.378;2023-11-21T03:35:33;96994.47;;;6.08;100.00
5872;BME280;2962;51.312;7.378;2023-11-21T03:37:59;96982.94;;;5.95;100.00
5872;BME280;2962;51.312;7.378;2023-11-21T03:40:24;96989.75;;;6.05;100.00
5872;BME280;2962;51.312;7.378;2023-11-21T03:42:49;96984.94;;;5.98;100.00
5872;BME280;2962;51.312;7.378;2023-11-21T03:45:15;96981.38;;;5.94;100.00
5872;BME280;2962;51.312;7.378;2023-11-21T03:47:41;96984.75;;;5.91;100.00
5872;BME280;2962;51.312;7.378;2023-11-21T03:50:07;96998.56;;;6.02;100.00
5872;BME280;2962;51.312;7.378;2023-11-21T03:52:34;96989.72;;;5.89;100.00
5872;BME280;2962;51.312;7.378;2023-11-21T03:55:00;97002.00;;;5.86;100.00
5872;BME280;2962;51.312;7.378;2023-11-21T03:57:25;97006.81;;;5.77;100.00
5872;BME280;2962;51.312;7.378;2023-11-21T03:59:52;97007.75;;;5.69;100.00
5872;BME280;2962;51.312;7.378;2023-11-21T04:02:18;97014.66;;;5.82;100.00
5872;BME280;2962;51.312;7.378;2023-11-21T04:04:43;97026.66;;;5.97;100.00
5872;BME280;2962;51.312;7.378;2023-11-21T04:07:09;97016.31;;;5.87;100.00
5872;BME280;2962;51.312;7.378;2023-11-21T04:09:34;97027.44;;;5.98;100.00
5872;BME280;2962;51.312;7.378;2023-11-21T04:12:01;97019.41;;;6.01;100.00
5872;BME280;2962;51.312;7.378;2023-11-21T04:14:26;97009.28;;;5.98;100.00
5872;BME280;2962;51.312;7.378;2023-11-21T04:16:52;97039.66;;;6.07;100.00
5872;BME280;2962;51.312;7.378;2023-11-21T04:19:18;97043.47;;;6.06;100.00
5872;BME280;2962;51.312;7.378;2023-11-21T04:21:44;97036.88;;;6.04;100.00
5872;BME280;2962;51.312;7.378;2023-11-21T04:24:09;97028.56;;;5.97;100.00
5872;BME280;2962;51.312;7.378;2023-11-21T04:26:35;97047.94;;;5.99;100.00
5872;BME280;2962;51.312;7.378;2023-11-21T04:29:00;97036.69;;;5.97;100.00
5872;BME280;2962;51.312;7.378;2023-11-21T04:31:26;97042.19;;;6.00;100.00
5872;BME280;2962;51.312;7.378;2023-11-21T04:33:51;97036.41;;;6.02;100.00
5872;BME280;2962;51.312;7.378;2023-11-21T04:36:16;97025.66;;;5.90;100.00
5872;BME280;2962;51.312;7.378;2023-11-21T04:38:42;97022.28;;;5.93;100.00
5872;BME280;2962;51.312;7.378;2023-11-21T04:41:08;97040.34;;;6.04;100.00
5872;BME280;2962;51.312;7.378;2023-11-21T04:43:33;97029.25;;;5.94;100.00
5872;BME280;2962;51.312;7.378;2023-11-21T04:45:58;97047.84;;;6.11;100.00
5872;BME280;2962;51.312;7.378;2023-11-21T04:48:23;97043.16;;;6.08;100.00
5872;BME280;2962;51.312;7.378;2023-11-21T04:50:49;97032.84;;;5.98;100.00
5872;BME280;2962;51.312;7.378;2023-11-21T04:53:14;97046.38;;;6.14;100.00
5872;BME280;2962;51.312;7.378;2023-11-21T04:55:40;97031.47;;;6.04;100.00
5872;BME280;2962;51.312;7.378;2023-11-21T04:58:06;97034.84;;;6.01;100.00
5872;BME280;2962;51.312;7.378;2023-11-21T05:00:31;97046.63;;;5.93;100.00
5872;BME280;2962;51.312;7.378;2023-11-21T05:02:56;97059.25;;;5.88;100.00
5872;BME280;2962;51.312;7.378;2023-11-21T05:05:22;97040.19;;;5.69;100.00
5872;BME280;2962;51.312;7.378;2023-11-21T05:07:47;97048.63;;;5.68;100.00
5872;BME280;2962;51.312;7.378;2023-11-21T05:10:14;97067.38;;;5.76;100.00
5872;BME280;2962;51.312;7.378;2023-11-21T05:12:41;97049.78;;;5.67;100.00
5872;BME280;2962;51.312;7.378;2023-11-21T05:15:07;97057.69;;;5.59;100.00
5872;BME280;2962;51.312;7.378;2023-11-21T05:17:37;97069.19;;;5.56;100.00
5872;BME280;2962;51.312;7.378;2023-11-21T05:20:06;97066.53;;;5.44;100.00
5872;BME280;2962;51.312;7.378;2023-11-21T05:22:34;97066.88;;;5.43;100.00
5872;BME280;2962;51.312;7.378;2023-11-21T05:25:00;97054.09;;;5.27;100.00
5872;BME280;2962;51.312;7.378;2023-11-21T05:27:25;97065.78;;;5.31;100.00
5872;BME280;2962;51.312;7.378;2023-11-21T05:29:51;97064.91;;;5.27;100.00
5872;BME280;2962;51.312;7.378;2023-11-21T05:32:16;97068.75;;;5.14;100.00
5872;BME280;2962;51.312;7.378;2023-11-21T05:34:42;97068.66;;;5.10;100.00
5872;BME280;2962;51.312;7.378;2023-11-21T05:37:08;97067.72;;;5.19;100.00
5872;BME280;2962;51.312;7.378;2023-11-21T05:39:33;97069.78;;;5.09;100.00
5872;BME280;2962;51.312;7.378;2023-11-21T05:41:58;97089.03;;;5.08;100.00
5872;BME280;2962;51.312;7.378;2023-11-21T05:44:25;97095.78;;;5.02;100.00
5872;BME280;2962;51.312;7.378;2023-11-21T05:46:50;97100.28;;;5.10;100.00
5872;BME280;2962;51.312;7.378;2023-11-21T05:49:16;97097.69;;;5.13;100.00
5872;BME280;2962;51.312;7.378;2023-11-21T05:51:41;97096.16;;;5.41;100.00
5872;BME280;2962;51.312;7.378;2023-11-21T05:54:06;97099.34;;;5.58;100.00
5872;BME280;2962;51.312;7.378;2023-11-21T05:56:33;97098.63;;;5.74;100.00
5872;BME280;2962;51.312;7.378;2023-11-21T05:58:58;97106.31;;;5.87;100.00
5872;BME280;2962;51.312;7.378;2023-11-21T06:01:25;97112.06;;;5.86;100.00
5872;BME280;2962;51.312;7.378;2023-11-21T06:03:53;97120.84;;;5.95;100.00
5872;BME280;2962;51.312;7.378;2023-11-21T06:06:18;97131.06;;;6.02;100.00
5872;BME280;2962;51.312;7.378;2023-11-21T06:08:44;97128.81;;;6.04;100.00
5872;BME280;2962;51.312;7.378;2023-11-21T06:11:09;97138.66;;;5.96;100.00
5872;BME280;2962;51.312;7.378;2023-11-21T06:13:36;97149.56;;;6.00;100.00
5872;BME280;2962;51.312;7.378;2023-11-21T06:16:01;97146.59;;;6.05;100.00
5872;BME280;2962;51.312;7.378;2023-11-21T06:18:27;97153.25;;;6.07;100.00
5872;BME280;2962;51.312;7.378;2023-11-21T06:20:52;97153.31;;;6.11;100.00
5872;BME280;2962;51.312;7.378;2023-11-21T06:23:18;97152.44;;;6.07;100.00
5872;BME280;2962;51.312;7.378;2023-11-21T06:25:43;97159.53;;;6.11;100.00
5872;BME280;2962;51.312;7.378;2023-11-21T06:28:09;97154.44;;;5.94;100.00
5872;BME280;2962;51.312;7.378;2023-11-21T06:30:35;97154.09;;;5.83;100.00
5872;BME280;2962;51.312;7.378;2023-11-21T06:33:00;97151.00;;;5.69;100.00
5872;BME280;2962;51.312;7.378;2023-11-21T06:35:26;97167.22;;;5.69;100.00
5872;BME280;2962;51.312;7.378;2023-11-21T06:37:54;97155.44;;;5.61;100.00
5872;BME280;2962;51.312;7.378;2023-11-21T06:40:20;97166.41;;;5.69;100.00
5872;BME280;2962;51.312;7.378;2023-11-21T06:42:45;97163.81;;;5.72;100.00
5872;BME280;2962;51.312;7.378;2023-11-21T06:45:12;97160.97;;;5.93;100.00
5872;BME280;2962;51.312;7.378;2023-11-21T06:47:37;97172.81;;;6.17;100.00
5872;BME280;2962;51.312;7.378;2023-11-21T06:50:03;97178.06;;;6.25;100.00
5872;BME280;2962;51.312;7.378;2023-11-21T06:52:29;97183.47;;;6.25;100.00
5872;BME280;2962;51.312;7.378;2023-11-21T06:54:54;97168.88;;;6.14;100.00
5872;BME280;2962;51.312;7.378;2023-11-21T06:57:20;97182.78;;;6.28;100.00
5872;BME280;2962;51.312;7.378;2023-11-21T06:59:45;97188.72;;;6.34;100.00
5872;BME280;2962;51.312;7.378;2023-11-21T07:02:10;97201.81;;;6.32;100.00
5872;BME280;2962;51.312;7.378;2023-11-21T07:04:36;97194.94;;;6.34;100.00
5872;BME280;2962;51.312;7.378;2023-11-21T07:07:06;97203.72;;;6.31;100.00
5872;BME280;2962;51.312;7.378;2023-11-21T07:09:32;97212.03;;;6.39;100.00
5872;BME280;2962;51.312;7.378;2023-11-21T07:11:57;97208.63;;;6.42;100.00
5872;BME280;2962;51.312;7.378;2023-11-21T07:14:23;97218.34;;;6.43;100.00
5872;BME280;2962;51.312;7.378;2023-11-21T07:16:48;97216.94;;;6.49;100.00
5872;BME280;2962;51.312;7.378;2023-11-21T07:19:14;97227.00;;;6.64;100.00
5872;BME280;2962;51.312;7.378;2023-11-21T07:21:39;97235.41;;;6.91;100.00
5872;BME280;2962;51.312;7.378;2023-11-21T07:24:06;97233.34;;;7.00;100.00
5872;BME280;2962;51.312;7.378;2023-11-21T07:26:33;97234.44;;;7.15;100.00
5872;BME280;2962;51.312;7.378;2023-11-21T07:28:58;97241.53;;;7.19;100.00
5872;BME280;2962;51.312;7.378;2023-11-21T07:31:24;97241.09;;;7.17;100.00
5872;BME280;2962;51.312;7.378;2023-11-21T07:33:49;97248.59;;;7.24;100.00
5872;BME280;2962;51.312;7.378;2023-11-21T07:36:16;97242.50;;;7.11;100.00
5872;BME280;2962;51.312;7.378;2023-11-21T07:38:44;97240.81;;;6.91;100.00
5872;BME280;2962;51.312;7.378;2023-11-21T07:41:10;97242.75;;;6.74;100.00
5872;BME280;2962;51.312;7.378;2023-11-21T07:43:36;97253.38;;;6.67;100.00
5872;BME280;2962;51.312;7.378;2023-11-21T07:46:02;97251.88;;;6.54;100.00
5872;BME280;2962;51.312;7.378;2023-11-21T07:48:29;97240.50;;;6.48;100.00
5872;BME280;2962;51.312;7.378;2023-11-21T07:50:54;97227.41;;;6.34;100.00
5872;BME280;2962;51.312;7.378;2023-11-21T07:53:20;97249.88;;;6.51;100.00
5872;BME280;2962;51.312;7.378;2023-11-21T07:55:46;97253.00;;;6.53;100.00
5872;BME280;2962;51.312;7.378;2023-11-21T07:58:12;97213.00;;;6.30;100.00
5872;BME280;2962;51.312;7.378;2023-11-21T08:00:38;97244.19;;;6.56;100.00
5872;BME280;2962;51.312;7.378;2023-11-21T08:03:04;97239.38;;;6.49;100.00
5872;BME280;2962;51.312;7.378;2023-11-21T08:05:30;97245.06;;;6.60;100.00
5872;BME280;2962;51.312;7.378;2023-11-21T08:07:56;97247.59;;;6.53;100.00
5872;BME280;2962;51.312;7.378;2023-11-21T08:10:21;97259.28;;;6.57;100.00
5872;BME280;2962;51.312;7.378;2023-11-21T08:12:47;97265.16;;;6.59;100.00
5872;BME280;2962;51.312;7.378;2023-11-21T08:15:14;97274.34;;;6.70;100.00
5872;BME280;2962;51.312;7.378;2023-11-21T08:17:39;97269.22;;;6.81;100.00
5872;BME280;2962;51.312;7.378;2023-11-21T08:20:05;97274.88;;;6.92;100.00
5872;BME280;2962;51.312;7.378;2023-11-21T08:22:32;97277.44;;;6.84;100.00
5872;BME280;2962;51.312;7.378;2023-11-21T08:24:57;97283.38;;;7.06;100.00
5872;BME280;2962;51.312;7.378;2023-11-21T08:27:23;97286.88;;;7.22;100.00
5872;BME280;2962;51.312;7.378;2023-11-21T08:29:48;97288.38;;;7.36;100.00
5872;BME280;2962;51.312;7.378;2023-11-21T08:32:13;97303.84;;;7.35;100.00
5872;BME280;2962;51.312;7.378;2023-11-21T08:34:39;97306.38;;;7.28;100.00
5872;BME280;2962;51.312;7.378;2023-11-21T08:37:05;97305.78;;;7.19;100.00
5872;BME280;2962;51.312;7.378;2023-11-21T08:39:30;97318.88;;;7.17;100.00
5872;BME280;2962;51.312;7.378;2023-11-21T08:41:57;97316.06;;;7.13;100.00
5872;BME280;2962;51.312;7.378;2023-11-21T08:44:22;97313.81;;;7.15;100.00
5872;BME280;2962;51.312;7.378;2023-11-21T08:46:48;97318.97;;;7.20;100.00
5872;BME280;2962;51.312;7.378;2023-11-21T08:49:14;97322.03;;;7.19;100.00
5872;BME280;2962;51.312;7.378;2023-11-21T08:51:40;97331.91;;;7.11;100.00
5872;BME280;2962;51.312;7.378;2023-11-21T08:54:06;97337.56;;;7.06;100.00
5872;BME280;2962;51.312;7.378;2023-11-21T08:56:34;97342.66;;;7.07;100.00
5872;BME280;2962;51.312;7.378;2023-11-21T08:58:59;97337.13;;;7.04;100.00
5872;BME280;2962;51.312;7.378;2023-11-21T09:01:31;97344.13;;;7.05;100.00
5872;BME280;2962;51.312;7.378;2023-11-21T09:03:57;97344.53;;;7.07;100.00
5872;BME280;2962;51.312;7.378;2023-11-21T09:06:22;97350.78;;;7.07;100.00
5872;BME280;2962;51.312;7.378;2023-11-21T09:08:48;97351.97;;;7.10;100.00
5872;BME280;2962;51.312;7.378;2023-11-21T09:11:13;97354.69;;;7.10;100.00
5872;BME280;2962;51.312;7.378;2023-11-21T09:13:38;97354.28;;;7.08;100.00
5872;BME280;2962;51.312;7.378;2023-11-21T09:16:04;97351.88;;;7.06;100.00
5872;BME280;2962;51.312;7.378;2023-11-21T09:18:31;97349.53;;;7.05;100.00
5872;BME280;2962;51.312;7.378;2023-11-21T09:20:56;97352.66;;;7.07;100.00
5872;BME280;2962;51.312;7.378;2023-11-21T09:23:21;97363.78;;;7.02;100.00
5872;BME280;2962;51.312;7.378;2023-11-21T09:25:47;97368.13;;;7.06;100.00
5872;BME280;2962;51.312;7.378;2023-11-21T09:28:15;97365.78;;;7.05;100.00
5872;BME280;2962;51.312;7.378;2023-11-21T09:30:40;97369.44;;;6.97;100.00
5872;BME280;2962;51.312;7.378;2023-11-21T09:33:05;97375.19;;;6.95;100.00
5872;BME280;2962;51.312;7.378;2023-11-21T09:35:32;97378.09;;;7.02;100.00
5872;BME280;2962;51.312;7.378;2023-11-21T09:37:57;97386.00;;;7.07;100.00
5872;BME280;2962;51.312;7.378;2023-11-21T09:40:22;97381.59;;;7.03;100.00
5872;BME280;2962;51.312;7.378;2023-11-21T09:42:57;97389.03;;;7.06;100.00
5872;BME280;2962;51.312;7.378;2023-11-21T09:45:28;97388.53;;;7.16;100.00
5872;BME280;2962;51.312;7.378;2023-11-21T09:47:54;97400.25;;;7.20;100.00
5872;BME280;2962;51.312;7.378;2023-11-21T09:50:21;97394.56;;;7.25;100.00
5872;BME280;2962;51.312;7.378;2023-11-21T09:53:12;97401.13;;;7.24;100.00
5872;BME280;2962;51.312;7.378;2023-11-21T09:55:43;97390.03;;;7.29;100.00
5872;BME280;2962;51.312;7.378;2023-11-21T09:58:09;97398.84;;;7.26;100.00
5872;BME280;2962;51.312;7.378;2023-11-21T10:00:40;97402.69;;;7.25;100.00
5872;BME280;2962;51.312;7.378;2023-11-21T10:03:05;97409.69;;;7.26;100.00
5872;BME280;2962;51.312;7.378;2023-11-21T10:05:31;97404.59;;;7.09;100.00
5872;BME280;2962;51.312;7.378;2023-11-21T10:07:59;97402.50;;;7.18;100.00
5872;BME280;2962;51.312;7.378;2023-11-21T10:10:25;97399.91;;;7.22;100.00
5872;BME280;2962;51.312;7.378;2023-11-21T10:12:55;97398.84;;;7.26;100.00
5872;BME280;2962;51.312;7.378;2023-11-21T10:15:23;97401.31;;;7.31;100.00
5872;BME280;2962;51.312;7.378;2023-11-21T10:17:52;97403.00;;;7.36;100.00
5872;BME280;2962;51.312;7.378;2023-11-21T10:20:19;97403.59;;;7.29;100.00
5872;BME280;2962;51.312;7.378;2023-11-21T10:22:45;97412.69;;;7.53;100.00
5872;BME280;2962;51.312;7.378;2023-11-21T10:25:11;97408.69;;;7.63;100.00
5872;BME280;2962;51.312;7.378;2023-11-21T10:27:40;97404.94;;;7.67;100.00
5872;BME280;2962;51.312;7.378;2023-11-21T10:30:06;97407.63;;;7.67;100.00
5872;BME280;2962;51.312;7.378;2023-11-21T10:32:33;97407.28;;;7.53;100.00
5872;BME280;2962;51.312;7.378;2023-11-21T10:34:59;97400.78;;;7.42;100.00
5872;BME280;2962;51.312;7.378;2023-11-21T10:37:32;97402.56;;;7.50;100.00
5872;BME280;2962;51.312;7.378;2023-11-21T10:40:01;97407.91;;;7.62;100.00
5872;BME280;2962;51.312;7.378;2023-11-21T10:42:26;97407.28;;;7.53;100.00
5872;BME280;2962;51.312;7.378;2023-11-21T10:44:54;97410.06;;;7.56;100.00
5872;BME280;2962;51.312;7.378;2023-11-21T10:47:20;97408.50;;;7.71;100.00
5872;BME280;2962;51.312;7.378;2023-11-21T10:49:50;97420.41;;;7.82;100.00
5872;BME280;2962;51.312;7.378;2023-11-21T10:52:19;97405.00;;;7.87;100.00
5872;BME280;2962;51.312;7.378;2023-11-21T10:54:46;97415.00;;;7.82;100.00
5872;BME280;2962;51.312;7.378;2023-11-21T10:57:13;97425.44;;;8.31;100.00
5872;BME280;2962;51.312;7.378;2023-11-21T10:59:44;97427.22;;;8.59;100.00
5872;BME280;2962;51.312;7.378;2023-11-21T11:02:21;97429.69;;;8.84;100.00
5872;BME280;2962;51.312;7.378;2023-11-21T11:04:50;97429.75;;;8.87;100.00
5872;BME280;2962;51.312;7.378;2023-11-21T11:07:17;97416.91;;;8.49;100.00
5872;BME280;2962;51.312;7.378;2023-11-21T11:09:43;97439.09;;;8.51;100.00
5872;BME280;2962;51.312;7.378;2023-11-21T11:12:10;97433.31;;;8.37;100.00
5872;BME280;2962;51.312;7.378;2023-11-21T11:14:40;97429.31;;;8.30;100.00
5872;BME280;2962;51.312;7.378;2023-11-21T11:17:07;97433.44;;;8.08;100.00
5872;BME280;2962;51.312;7.378;2023-11-21T11:19:34;97428.63;;;8.02;100.00
5872;BME280;2962;51.312;7.378;2023-11-21T11:22:29;97431.88;;;8.07;100.00
5872;BME280;2962;51.312;7.378;2023-11-21T11:36:33;97438.41;;;8.22;100.00
5872;BME280;2962;51.312;7.378;2023-11-21T11:38:59;97437.69;;;8.25;100.00
5872;BME280;2962;51.312;7.378;2023-11-21T11:41:29;97421.16;;;8.15;100.00
5872;BME280;2962;51.312;7.378;2023-11-21T11:43:55;97438.88;;;8.08;100.00
5872;BME280;2962;51.312;7.378;2023-11-21T11:46:40;97433.00;;;8.06;100.00
5872;BME280;2962;51.312;7.378;2023-11-21T11:49:06;97433.19;;;7.82;100.00
5872;BME280;2962;51.312;7.378;2023-11-21T11:51:33;97437.63;;;8.06;100.00
5872;BME280;2962;51.312;7.378;2023-11-21T11:54:01;97430.28;;;8.06;100.00
5872;BME280;2962;51.312;7.378;2023-11-21T11:56:33;97434.66;;;7.95;100.00
5872;BME280;2962;51.312;7.378;2023-11-21T11:59:04;97442.72;;;7.92;100.00
5872;BME280;2962;51.312;7.378;2023-11-21T12:01:32;97443.34;;;8.01;100.00
5872;BME280;2962;51.312;7.378;2023-11-21T12:07:13;97454.78;;;7.94;100.00
5872;BME280;2962;51.312;7.378;2023-11-21T12:09:39;97450.69;;;8.00;100.00
5872;BME280;2962;51.312;7.378;2023-11-21T12:12:05;97450.34;;;8.02;100.00
5872;BME280;2962;51.312;7.378;2023-11-21T12:14:30;97453.84;;;8.02;100.00
5872;BME280;2962;51.312;7.378;2023-11-21T12:16:56;97460.03;;;7.87;100.00
5872;BME280;2962;51.312;7.378;2023-11-21T12:19:21;97467.84;;;7.89;100.00
5872;BME280;2962;51.312;7.378;2023-11-21T12:21:47;97465.63;;;7.63;100.00
5872;BME280;2962;51.312;7.378;2023-11-21T12:24:14;97460.47;;;7.57;100.00
5872;BME280;2962;51.312;7.378;2023-11-21T12:26:40;97463.69;;;7.47;100.00
5872;BME280;2962;51.312;7.378;2023-11-21T12:29:05;97449.66;;;7.29;100.00
5872;BME280;2962;51.312;7.378;2023-11-21T12:31:33;97465.41;;;7.40;100.00
5872;BME280;2962;51.312;7.378;2023-11-21T12:34:00;97468.22;;;7.43;100.00
5872;BME280;2962;51.312;7.378;2023-11-21T12:36:25;97452.81;;;7.31;100.00
5872;BME280;2962;51.312;7.378;2023-11-21T12:38:51;97473.56;;;7.40;100.00
5872;BME280;2962;51.312;7.378;2023-11-21T12:41:16;97470.22;;;7.30;100.00
5872;BME280;2962;51.312;7.378;2023-11-21T12:43:46;97485.53;;;7.39;100.00
5872;BME280;2962;51.312;7.378;2023-11-21T12:46:13;97484.88;;;7.29;100.00
5872;BME280;2962;51.312;7.378;2023-11-21T12:48:41;97479.00;;;7.12;100.00
5872;BME280;2962;51.312;7.378;2023-11-21T12:51:13;97465.34;;;7.08;100.00
5872;BME280;2962;51.312;7.378;2023-11-21T12:53:44;97487.75;;;7.21;100.00
5872;BME280;2962;51.312;7.378;2023-11-21T12:56:12;97487.34;;;7.06;100.00
5872;BME280;2962;51.312;7.378;2023-11-21T12:58:38;97482.44;;;6.96;100.00
5872;BME280;2962;51.312;7.378;2023-11-21T13:01:06;97476.13;;;6.92;100.00
5872;BME280;2962;51.312;7.378;2023-11-21T13:03:37;97487.50;;;6.98;100.00
5872;BME280;2962;51.312;7.378;2023-11-21T13:06:03;97488.41;;;6.90;100.00
5872;BME280;2962;51.312;7.378;2023-11-21T13:08:30;97489.78;;;6.96;100.00
5872;BME280;2962;51.312;7.378;2023-11-21T13:10:56;97487.28;;;6.91;100.00
5872;BME280;2962;51.312;7.378;2023-11-21T13:13:23;97491.91;;;6.90;100.00
5872;BME280;2962;51.312;7.378;2023-11-21T13:15:51;97501.72;;;6.95;100.00
5872;BME280;2962;51.312;7.378;2023-11-21T13:18:18;97508.63;;;6.92;100.00
5872;BME280;2962;51.312;7.378;2023-11-21T13:20:44;97509.28;;;6.89;100.00
5872;BME280;2962;51.312;7.378;2023-11-21T13:23:10;97517.97;;;6.95;100.00
5872;BME280;2962;51.312;7.378;2023-11-21T13:25:40;97517.75;;;6.88;100.00
5872;BME280;2962;51.312;7.378;2023-11-21T13:28:07;97520.06;;;6.73;100.00
5872;BME280;2962;51.312;7.378;2023-11-21T13:30:33;97528.84;;;6.70;100.00
5872;BME280;2962;51.312;7.378;2023-11-21T13:33:02;97531.34;;;6.63;100.00